sensor_id;sensor_type;location;lat;lon;timestamp;P1;durP1;ratioP1;P2;durP2;ratioP2
74538;SDS011;66042;51.090;-115.340;2023-08-06T00:01:46;17.20;;;12.00;;
74538;SDS011;66042;51.090;-115.340;2023-08-06T00:04:13;16.90;;;11.80;;
74538;SDS011;66042;51.090;-115.340;2023-08-06T00:06:40;14.50;;;12.20;;
74538;SDS011;66042;51.090;-115.340;2023-08-06T00:09:07;14.00;;;11.40;;
74538;SDS011;66042;51.090;-115.340;2023-08-06T00:11:34;11.70;;;10.20;;
74538;SDS011;66042;51.090;-115.340;2023-08-06T00:14:02;12.70;;;11.30;;
74538;SDS011;66042;51.090;-115.340;2023-08-06T00:16:29;12.70;;;9.60;;
74538;SDS011;66042;51.090;-115.340;2023-08-06T00:18:56;9.70;;;8.10;;
74538;SDS011;66042;51.090;-115.340;2023-08-06T00:21:25;10.10;;;7.80;;
74538;SDS011;66042;51.090;-115.340;2023-08-06T00:23:52;10.90;;;8.20;;
74538;SDS011;66042;51.090;-115.340;2023-08-06T00:26:19;10.90;;;8.30;;
74538;SDS011;66042;51.090;-115.340;2023-08-06T00:28:46;9.40;;;7.50;;
74538;SDS011;66042;51.090;-115.340;2023-08-06T00:31:13;10.10;;;8.30;;
74538;SDS011;66042;51.090;-115.340;2023-08-06T00:33:40;11.70;;;8.10;;
74538;SDS011;66042;51.090;-115.340;2023-08-06T00:36:07;11.00;;;7.90;;
74538;SDS011;66042;51.090;-115.340;2023-08-06T00:38:34;10.40;;;7.90;;
74538;SDS011;66042;51.090;-115.340;2023-08-06T00:41:01;10.30;;;8.10;;
74538;SDS011;66042;51.090;-115.340;2023-08-06T00:43:28;11.30;;;8.10;;
74538;SDS011;66042;51.090;-115.340;2023-08-06T00:45:56;12.80;;;8.30;;
74538;SDS011;66042;51.090;-115.340;2023-08-06T00:48:22;13.00;;;10.20;;
74538;SDS011;66042;51.090;-115.340;2023-08-06T00:50:49;13.10;;;10.60;;
74538;SDS011;66042;51.090;-115.340;2023-08-06T00:53:17;12.20;;;9.30;;
74538;SDS011;66042;51.090;-115.340;2023-08-06T00:55:45;15.90;;;9.90;;
74538;SDS011;66042;51.090;-115.340;2023-08-06T00:58:13;11.60;;;9.20;;
74538;SDS011;66042;51.090;-115.340;2023-08-06T01:00:41;11.50;;;9.60;;
74538;SDS011;66042;51.090;-115.340;2023-08-06T01:03:08;12.60;;;9.60;;
74538;SDS011;66042;51.090;-115.340;2023-08-06T01:05:35;11.20;;;9.00;;
74538;SDS011;66042;51.090;-115.340;2023-08-06T01:11:26;13.00;;;9.20;;
74538;SDS011;66042;51.090;-115.340;2023-08-06T01:14:34;12.40;;;9.20;;
74538;SDS011;66042;51.090;-115.340;2023-08-06T01:17:13;12.20;;;9.40;;
74538;SDS011;66042;51.090;-115.340;2023-08-06T01:19:41;13.60;;;9.90;;
74538;SDS011;66042;51.090;-115.340;2023-08-06T01:22:08;12.50;;;10.20;;
74538;SDS011;66042;51.090;-115.340;2023-08-06T01:24:35;12.90;;;10.10;;
74538;SDS011;66042;51.090;-115.340;2023-08-06T01:30:06;12.70;;;10.20;;
74538;SDS011;66042;51.090;-115.340;2023-08-06T01:32:44;12.90;;;9.60;;
74538;SDS011;66042;51.090;-115.340;2023-08-06T01:35:15;14.10;;;10.10;;
74538;SDS011;66042;51.090;-115.340;2023-08-06T01:37:46;13.20;;;10.40;;
74538;SDS011;66042;51.090;-115.340;2023-08-06T01:40:14;12.10;;;10.00;;
74538;SDS011;66042;51.090;-115.340;2023-08-06T01:42:41;12.70;;;9.70;;
74538;SDS011;66042;51.090;-115.340;2023-08-06T01:45:08;12.00;;;9.60;;
74538;SDS011;66042;51.090;-115.340;2023-08-06T01:47:36;12.40;;;8.80;;
74538;SDS011;66042;51.090;-115.340;2023-08-06T01:50:03;13.10;;;9.30;;
74538;SDS011;66042;51.090;-115.340;2023-08-06T01:52:30;11.10;;;9.30;;
74538;SDS011;66042;51.090;-115.340;2023-08-06T01:54:58;13.10;;;9.80;;
74538;SDS011;66042;51.090;-115.340;2023-08-06T01:57:25;13.00;;;9.60;;
74538;SDS011;66042;51.090;-115.340;2023-08-06T01:59:52;11.20;;;8.90;;
74538;SDS011;66042;51.090;-115.340;2023-08-06T02:02:18;12.60;;;8.60;;
74538;SDS011;66042;51.090;-115.340;2023-08-06T02:04:45;11.20;;;8.80;;
74538;SDS011;66042;51.090;-115.340;2023-08-06T02:07:12;12.70;;;8.90;;
74538;SDS011;66042;51.090;-115.340;2023-08-06T02:09:38;12.40;;;8.70;;
74538;SDS011;66042;51.090;-115.340;2023-08-06T02:12:06;11.40;;;8.80;;
74538;SDS011;66042;51.090;-115.340;2023-08-06T02:14:34;12.70;;;9.30;;
74538;SDS011;66042;51.090;-115.340;2023-08-06T02:17:01;14.60;;;8.50;;
74538;SDS011;66042;51.090;-115.340;2023-08-06T02:19:28;12.60;;;8.80;;
74538;SDS011;66042;51.090;-115.340;2023-08-06T02:21:55;11.60;;;8.70;;
74538;SDS011;66042;51.090;-115.340;2023-08-06T02:24:22;13.20;;;8.60;;
74538;SDS011;66042;51.090;-115.340;2023-08-06T02:26:48;11.30;;;8.70;;
74538;SDS011;66042;51.090;-115.340;2023-08-06T02:29:17;12.50;;;8.60;;
74538;SDS011;66042;51.090;-115.340;2023-08-06T02:31:45;13.10;;;8.50;;
74538;SDS011;66042;51.090;-115.340;2023-08-06T02:34:12;11.90;;;8.90;;
74538;SDS011;66042;51.090;-115.340;2023-08-06T02:36:39;13.30;;;9.20;;
74538;SDS011;66042;51.090;-115.340;2023-08-06T02:39:06;11.30;;;9.20;;
74538;SDS011;66042;51.090;-115.340;2023-08-06T02:41:33;10.30;;;8.10;;
74538;SDS011;66042;51.090;-115.340;2023-08-06T02:44:00;12.00;;;8.30;;
74538;SDS011;66042;51.090;-115.340;2023-08-06T02:46:26;11.90;;;7.10;;
74538;SDS011;66042;51.090;-115.340;2023-08-06T02:48:53;9.40;;;8.00;;
74538;SDS011;66042;51.090;-115.340;2023-08-06T02:51:20;10.80;;;7.40;;
74538;SDS011;66042;51.090;-115.340;2023-08-06T02:53:48;11.10;;;8.10;;
74538;SDS011;66042;51.090;-115.340;2023-08-06T02:56:15;10.90;;;7.70;;
74538;SDS011;66042;51.090;-115.340;2023-08-06T02:58:43;11.00;;;7.40;;
74538;SDS011;66042;51.090;-115.340;2023-08-06T03:01:10;12.70;;;8.70;;
74538;SDS011;66042;51.090;-115.340;2023-08-06T03:03:36;11.80;;;8.10;;
74538;SDS011;66042;51.090;-115.340;2023-08-06T03:06:03;11.10;;;7.50;;
74538;SDS011;66042;51.090;-115.340;2023-08-06T03:08:30;13.00;;;7.90;;
74538;SDS011;66042;51.090;-115.340;2023-08-06T03:10:57;11.70;;;7.50;;
74538;SDS011;66042;51.090;-115.340;2023-08-06T03:13:24;12.30;;;8.60;;
74538;SDS011;66042;51.090;-115.340;2023-08-06T03:15:56;12.70;;;8.50;;
74538;SDS011;66042;51.090;-115.340;2023-08-06T03:18:25;12.60;;;7.90;;
74538;SDS011;66042;51.090;-115.340;2023-08-06T03:20:52;12.60;;;8.10;;
74538;SDS011;66042;51.090;-115.340;2023-08-06T03:23:19;11.10;;;7.90;;
74538;SDS011;66042;51.090;-115.340;2023-08-06T03:25:47;11.30;;;7.70;;
74538;SDS011;66042;51.090;-115.340;2023-08-06T03:28:13;12.40;;;7.60;;
74538;SDS011;66042;51.090;-115.340;2023-08-06T03:30:40;11.70;;;6.60;;
74538;SDS011;66042;51.090;-115.340;2023-08-06T03:33:07;9.90;;;7.00;;
74538;SDS011;66042;51.090;-115.340;2023-08-06T03:35:34;10.50;;;6.90;;
74538;SDS011;66042;51.090;-115.340;2023-08-06T03:38:01;10.00;;;6.80;;
74538;SDS011;66042;51.090;-115.340;2023-08-06T03:40:28;11.20;;;7.20;;
74538;SDS011;66042;51.090;-115.340;2023-08-06T03:42:55;8.80;;;6.60;;
74538;SDS011;66042;51.090;-115.340;2023-08-06T03:45:22;9.40;;;6.70;;
74538;SDS011;66042;51.090;-115.340;2023-08-06T03:47:49;10.20;;;7.30;;
74538;SDS011;66042;51.090;-115.340;2023-08-06T03:50:16;10.20;;;7.10;;
74538;SDS011;66042;51.090;-115.340;2023-08-06T03:52:43;10.00;;;6.80;;
74538;SDS011;66042;51.090;-115.340;2023-08-06T03:55:10;9.80;;;6.50;;
74538;SDS011;66042;51.090;-115.340;2023-08-06T03:57:37;11.80;;;6.90;;
74538;SDS011;66042;51.090;-115.340;2023-08-06T04:00:05;12.00;;;6.40;;
74538;SDS011;66042;51.090;-115.340;2023-08-06T04:02:33;10.70;;;6.90;;
74538;SDS011;66042;51.090;-115.340;2023-08-06T04:05:00;10.50;;;6.30;;
74538;SDS011;66042;51.090;-115.340;2023-08-06T04:07:27;10.10;;;6.80;;
74538;SDS011;66042;51.090;-115.340;2023-08-06T04:09:58;9.70;;;6.70;;
74538;SDS011;66042;51.090;-115.340;2023-08-06T04:12:27;12.50;;;7.20;;
74538;SDS011;66042;51.090;-115.340;2023-08-06T04:14:55;11.40;;;7.20;;
74538;SDS011;66042;51.090;-115.340;2023-08-06T04:17:23;11.00;;;7.40;;
74538;SDS011;66042;51.090;-115.340;2023-08-06T04:19:52;11.70;;;7.00;;
74538;SDS011;66042;51.090;-115.340;2023-08-06T04:22:21;13.20;;;7.10;;
74538;SDS011;66042;51.090;-115.340;2023-08-06T04:24:48;10.40;;;6.70;;
74538;SDS011;66042;51.090;-115.340;2023-08-06T04:27:15;12.10;;;7.50;;
74538;SDS011;66042;51.090;-115.340;2023-08-06T04:29:43;14.00;;;7.10;;
74538;SDS011;66042;51.090;-115.340;2023-08-06T04:32:10;11.10;;;7.00;;
74538;SDS011;66042;51.090;-115.340;2023-08-06T04:34:37;10.30;;;7.10;;
74538;SDS011;66042;51.090;-115.340;2023-08-06T04:37:05;13.30;;;7.10;;
74538;SDS011;66042;51.090;-115.340;2023-08-06T04:39:32;11.60;;;7.20;;
74538;SDS011;66042;51.090;-115.340;2023-08-06T04:41:59;10.00;;;6.90;;
74538;SDS011;66042;51.090;-115.340;2023-08-06T04:44:25;9.80;;;6.60;;
74538;SDS011;66042;51.090;-115.340;2023-08-06T04:46:52;11.10;;;7.00;;
74538;SDS011;66042;51.090;-115.340;2023-08-06T04:49:23;10.80;;;6.30;;
74538;SDS011;66042;51.090;-115.340;2023-08-06T04:51:51;12.40;;;7.50;;
74538;SDS011;66042;51.090;-115.340;2023-08-06T04:54:18;12.10;;;7.40;;
74538;SDS011;66042;51.090;-115.340;2023-08-06T04:56:45;11.50;;;6.80;;
74538;SDS011;66042;51.090;-115.340;2023-08-06T04:59:12;11.70;;;6.40;;
74538;SDS011;66042;51.090;-115.340;2023-08-06T05:01:39;9.30;;;6.60;;
74538;SDS011;66042;51.090;-115.340;2023-08-06T05:04:06;9.90;;;7.10;;
74538;SDS011;66042;51.090;-115.340;2023-08-06T05:06:33;9.40;;;6.80;;
74538;SDS011;66042;51.090;-115.340;2023-08-06T05:09:00;9.90;;;6.80;;
74538;SDS011;66042;51.090;-115.340;2023-08-06T05:11:27;11.90;;;7.10;;
74538;SDS011;66042;51.090;-115.340;2023-08-06T05:13:54;11.00;;;6.80;;
74538;SDS011;66042;51.090;-115.340;2023-08-06T05:16:21;11.80;;;7.40;;
74538;SDS011;66042;51.090;-115.340;2023-08-06T05:18:48;10.70;;;7.00;;
74538;SDS011;66042;51.090;-115.340;2023-08-06T05:21:15;9.90;;;7.50;;
74538;SDS011;66042;51.090;-115.340;2023-08-06T05:23:45;9.20;;;6.80;;
74538;SDS011;66042;51.090;-115.340;2023-08-06T05:26:12;11.90;;;7.30;;
74538;SDS011;66042;51.090;-115.340;2023-08-06T05:28:40;10.30;;;7.50;;
74538;SDS011;66042;51.090;-115.340;2023-08-06T05:31:07;11.80;;;7.30;;
74538;SDS011;66042;51.090;-115.340;2023-08-06T05:33:35;11.40;;;8.10;;
74538;SDS011;66042;51.090;-115.340;2023-08-06T05:36:02;12.30;;;8.40;;
74538;SDS011;66042;51.090;-115.340;2023-08-06T05:38:29;12.10;;;7.30;;
74538;SDS011;66042;51.090;-115.340;2023-08-06T05:40:59;11.40;;;7.60;;
74538;SDS011;66042;51.090;-115.340;2023-08-06T05:43:26;10.70;;;7.50;;
74538;SDS011;66042;51.090;-115.340;2023-08-06T05:45:56;10.20;;;7.10;;
74538;SDS011;66042;51.090;-115.340;2023-08-06T05:48:33;10.30;;;6.70;;
74538;SDS011;66042;51.090;-115.340;2023-08-06T05:51:00;12.10;;;7.60;;
74538;SDS011;66042;51.090;-115.340;2023-08-06T05:53:27;10.90;;;7.10;;
74538;SDS011;66042;51.090;-115.340;2023-08-06T05:55:54;9.90;;;7.60;;
74538;SDS011;66042;51.090;-115.340;2023-08-06T05:58:21;12.10;;;6.70;;
74538;SDS011;66042;51.090;-115.340;2023-08-06T06:00:50;11.00;;;7.80;;
74538;SDS011;66042;51.090;-115.340;2023-08-06T06:03:17;9.20;;;6.50;;
74538;SDS011;66042;51.090;-115.340;2023-08-06T06:05:45;9.90;;;6.90;;
74538;SDS011;66042;51.090;-115.340;2023-08-06T06:08:11;11.50;;;6.70;;
74538;SDS011;66042;51.090;-115.340;2023-08-06T06:10:38;10.20;;;6.20;;
74538;SDS011;66042;51.090;-115.340;2023-08-06T06:13:06;9.00;;;6.00;;
74538;SDS011;66042;51.090;-115.340;2023-08-06T06:15:33;8.60;;;5.90;;
74538;SDS011;66042;51.090;-115.340;2023-08-06T06:18:00;8.40;;;6.70;;
74538;SDS011;66042;51.090;-115.340;2023-08-06T06:20:27;10.90;;;6.20;;
74538;SDS011;66042;51.090;-115.340;2023-08-06T06:22:53;7.10;;;4.70;;
74538;SDS011;66042;51.090;-115.340;2023-08-06T06:25:20;9.00;;;6.20;;
74538;SDS011;66042;51.090;-115.340;2023-08-06T06:27:47;9.10;;;5.80;;
74538;SDS011;66042;51.090;-115.340;2023-08-06T06:30:14;8.50;;;5.90;;
74538;SDS011;66042;51.090;-115.340;2023-08-06T06:32:41;8.80;;;6.40;;
74538;SDS011;66042;51.090;-115.340;2023-08-06T06:35:09;10.00;;;6.50;;
74538;SDS011;66042;51.090;-115.340;2023-08-06T06:37:36;9.00;;;6.20;;
74538;SDS011;66042;51.090;-115.340;2023-08-06T06:40:03;9.10;;;6.20;;
74538;SDS011;66042;51.090;-115.340;2023-08-06T06:42:31;8.40;;;6.30;;
74538;SDS011;66042;51.090;-115.340;2023-08-06T06:44:57;8.40;;;6.00;;
74538;SDS011;66042;51.090;-115.340;2023-08-06T06:47:24;8.90;;;5.80;;
74538;SDS011;66042;51.090;-115.340;2023-08-06T06:49:52;8.70;;;6.10;;
74538;SDS011;66042;51.090;-115.340;2023-08-06T06:52:21;8.90;;;6.10;;
74538;SDS011;66042;51.090;-115.340;2023-08-06T06:54:49;9.60;;;6.50;;
74538;SDS011;66042;51.090;-115.340;2023-08-06T06:57:16;9.20;;;6.00;;
74538;SDS011;66042;51.090;-115.340;2023-08-06T06:59:43;9.60;;;6.50;;
74538;SDS011;66042;51.090;-115.340;2023-08-06T07:02:10;9.00;;;6.20;;
74538;SDS011;66042;51.090;-115.340;2023-08-06T07:04:37;8.80;;;6.10;;
74538;SDS011;66042;51.090;-115.340;2023-08-06T07:07:04;8.50;;;5.90;;
74538;SDS011;66042;51.090;-115.340;2023-08-06T07:09:31;9.40;;;6.70;;
74538;SDS011;66042;51.090;-115.340;2023-08-06T07:11:58;8.90;;;6.10;;
74538;SDS011;66042;51.090;-115.340;2023-08-06T07:14:26;9.00;;;6.00;;
74538;SDS011;66042;51.090;-115.340;2023-08-06T07:16:54;9.80;;;5.90;;
74538;SDS011;66042;51.090;-115.340;2023-08-06T07:19:21;9.20;;;6.20;;
74538;SDS011;66042;51.090;-115.340;2023-08-06T07:21:49;9.30;;;6.20;;
74538;SDS011;66042;51.090;-115.340;2023-08-06T07:24:16;9.90;;;6.20;;
74538;SDS011;66042;51.090;-115.340;2023-08-06T07:26:43;8.30;;;5.40;;
74538;SDS011;66042;51.090;-115.340;2023-08-06T07:29:10;9.70;;;6.50;;
74538;SDS011;66042;51.090;-115.340;2023-08-06T07:31:37;8.90;;;6.30;;
74538;SDS011;66042;51.090;-115.340;2023-08-06T07:34:05;8.60;;;6.00;;
74538;SDS011;66042;51.090;-115.340;2023-08-06T07:36:32;9.20;;;5.70;;
74538;SDS011;66042;51.090;-115.340;2023-08-06T07:38:59;9.30;;;6.10;;
74538;SDS011;66042;51.090;-115.340;2023-08-06T07:41:26;8.90;;;6.20;;
74538;SDS011;66042;51.090;-115.340;2023-08-06T07:43:53;8.90;;;5.60;;
74538;SDS011;66042;51.090;-115.340;2023-08-06T07:46:20;9.20;;;6.10;;
74538;SDS011;66042;51.090;-115.340;2023-08-06T07:48:47;9.20;;;5.70;;
74538;SDS011;66042;51.090;-115.340;2023-08-06T07:51:14;8.70;;;5.90;;
74538;SDS011;66042;51.090;-115.340;2023-08-06T07:53:41;9.00;;;6.40;;
74538;SDS011;66042;51.090;-115.340;2023-08-06T07:56:08;9.60;;;6.00;;
74538;SDS011;66042;51.090;-115.340;2023-08-06T07:58:35;10.20;;;6.80;;
74538;SDS011;66042;51.090;-115.340;2023-08-06T08:01:02;8.60;;;5.70;;
74538;SDS011;66042;51.090;-115.340;2023-08-06T08:03:29;8.20;;;6.00;;
74538;SDS011;66042;51.090;-115.340;2023-08-06T08:05:56;9.30;;;5.90;;
74538;SDS011;66042;51.090;-115.340;2023-08-06T08:08:24;10.10;;;6.50;;
74538;SDS011;66042;51.090;-115.340;2023-08-06T08:10:51;8.70;;;6.40;;
74538;SDS011;66042;51.090;-115.340;2023-08-06T08:13:18;9.10;;;6.10;;
74538;SDS011;66042;51.090;-115.340;2023-08-06T08:15:46;8.50;;;6.10;;
74538;SDS011;66042;51.090;-115.340;2023-08-06T08:18:13;11.40;;;7.10;;
74538;SDS011;66042;51.090;-115.340;2023-08-06T08:20:40;11.50;;;7.10;;
74538;SDS011;66042;51.090;-115.340;2023-08-06T08:23:07;10.30;;;6.60;;
74538;SDS011;66042;51.090;-115.340;2023-08-06T08:25:34;9.20;;;6.20;;
74538;SDS011;66042;51.090;-115.340;2023-08-06T08:28:01;12.10;;;6.80;;
74538;SDS011;66042;51.090;-115.340;2023-08-06T08:30:28;9.80;;;6.70;;
74538;SDS011;66042;51.090;-115.340;2023-08-06T08:32:55;10.90;;;7.00;;
74538;SDS011;66042;51.090;-115.340;2023-08-06T08:35:22;10.40;;;7.30;;
74538;SDS011;66042;51.090;-115.340;2023-08-06T08:37:50;11.00;;;7.40;;
74538;SDS011;66042;51.090;-115.340;2023-08-06T08:40:18;11.40;;;7.20;;
74538;SDS011;66042;51.090;-115.340;2023-08-06T08:42:46;11.00;;;7.10;;
74538;SDS011;66042;51.090;-115.340;2023-08-06T08:45:14;11.00;;;6.90;;
74538;SDS011;66042;51.090;-115.340;2023-08-06T08:47:42;10.50;;;7.00;;
74538;SDS011;66042;51.090;-115.340;2023-08-06T08:50:10;12.90;;;7.20;;
74538;SDS011;66042;51.090;-115.340;2023-08-06T08:52:38;10.60;;;6.90;;
74538;SDS011;66042;51.090;-115.340;2023-08-06T08:55:07;11.20;;;7.10;;
74538;SDS011;66042;51.090;-115.340;2023-08-06T08:57:35;11.00;;;7.70;;
74538;SDS011;66042;51.090;-115.340;2023-08-06T09:00:03;11.30;;;6.60;;
74538;SDS011;66042;51.090;-115.340;2023-08-06T09:02:32;9.80;;;6.50;;
74538;SDS011;66042;51.090;-115.340;2023-08-06T09:05:01;10.40;;;6.40;;
74538;SDS011;66042;51.090;-115.340;2023-08-06T09:07:41;10.20;;;7.10;;
74538;SDS011;66042;51.090;-115.340;2023-08-06T09:10:11;10.10;;;6.30;;
74538;SDS011;66042;51.090;-115.340;2023-08-06T09:12:41;10.60;;;7.20;;
74538;SDS011;66042;51.090;-115.340;2023-08-06T09:15:09;11.00;;;6.80;;
74538;SDS011;66042;51.090;-115.340;2023-08-06T09:17:36;10.50;;;7.10;;
74538;SDS011;66042;51.090;-115.340;2023-08-06T09:20:13;9.90;;;7.10;;
74538;SDS011;66042;51.090;-115.340;2023-08-06T09:22:40;10.10;;;7.10;;
74538;SDS011;66042;51.090;-115.340;2023-08-06T09:25:07;14.20;;;7.80;;
74538;SDS011;66042;51.090;-115.340;2023-08-06T09:27:39;12.00;;;7.00;;
74538;SDS011;66042;51.090;-115.340;2023-08-06T09:30:07;10.40;;;7.00;;
74538;SDS011;66042;51.090;-115.340;2023-08-06T09:32:47;10.90;;;7.50;;
74538;SDS011;66042;51.090;-115.340;2023-08-06T09:35:19;10.30;;;6.80;;
74538;SDS011;66042;51.090;-115.340;2023-08-06T09:37:46;11.90;;;7.30;;
74538;SDS011;66042;51.090;-115.340;2023-08-06T09:40:26;11.20;;;6.90;;
74538;SDS011;66042;51.090;-115.340;2023-08-06T09:42:58;12.30;;;7.10;;
74538;SDS011;66042;51.090;-115.340;2023-08-06T09:45:30;11.00;;;7.10;;
74538;SDS011;66042;51.090;-115.340;2023-08-06T09:48:09;11.80;;;7.40;;
74538;SDS011;66042;51.090;-115.340;2023-08-06T09:50:38;10.70;;;7.40;;
74538;SDS011;66042;51.090;-115.340;2023-08-06T09:53:09;9.10;;;6.10;;
74538;SDS011;66042;51.090;-115.340;2023-08-06T09:55:35;9.60;;;6.50;;
74538;SDS011;66042;51.090;-115.340;2023-08-06T09:58:03;10.60;;;6.70;;
74538;SDS011;66042;51.090;-115.340;2023-08-06T10:00:31;10.30;;;6.90;;
74538;SDS011;66042;51.090;-115.340;2023-08-06T10:03:00;10.00;;;7.40;;
74538;SDS011;66042;51.090;-115.340;2023-08-06T10:05:28;10.80;;;7.30;;
74538;SDS011;66042;51.090;-115.340;2023-08-06T10:07:59;11.40;;;7.50;;
74538;SDS011;66042;51.090;-115.340;2023-08-06T10:10:28;11.30;;;7.30;;
74538;SDS011;66042;51.090;-115.340;2023-08-06T10:12:58;10.10;;;6.90;;
74538;SDS011;66042;51.090;-115.340;2023-08-06T10:15:30;13.40;;;7.70;;
74538;SDS011;66042;51.090;-115.340;2023-08-06T10:17:59;10.70;;;7.40;;
74538;SDS011;66042;51.090;-115.340;2023-08-06T10:20:33;14.70;;;8.00;;
74538;SDS011;66042;51.090;-115.340;2023-08-06T10:23:05;14.60;;;8.00;;
74538;SDS011;66042;51.090;-115.340;2023-08-06T10:25:40;12.10;;;7.50;;
74538;SDS011;66042;51.090;-115.340;2023-08-06T10:28:11;10.60;;;7.00;;
74538;SDS011;66042;51.090;-115.340;2023-08-06T10:30:47;11.10;;;7.00;;
74538;SDS011;66042;51.090;-115.340;2023-08-06T10:33:16;11.30;;;7.20;;
74538;SDS011;66042;51.090;-115.340;2023-08-06T10:35:48;12.50;;;7.00;;
74538;SDS011;66042;51.090;-115.340;2023-08-06T10:38:18;10.30;;;7.50;;
74538;SDS011;66042;51.090;-115.340;2023-08-06T10:46:09;12.00;;;7.20;;
74538;SDS011;66042;51.090;-115.340;2023-08-06T10:48:41;13.10;;;8.70;;
74538;SDS011;66042;51.090;-115.340;2023-08-06T10:51:13;11.20;;;7.50;;
74538;SDS011;66042;51.090;-115.340;2023-08-06T10:53:45;12.00;;;7.60;;
74538;SDS011;66042;51.090;-115.340;2023-08-06T10:56:18;11.60;;;7.20;;
74538;SDS011;66042;51.090;-115.340;2023-08-06T10:58:46;10.40;;;7.20;;
74538;SDS011;66042;51.090;-115.340;2023-08-06T11:01:14;9.90;;;6.40;;
74538;SDS011;66042;51.090;-115.340;2023-08-06T11:03:46;12.10;;;7.80;;
74538;SDS011;66042;51.090;-115.340;2023-08-06T11:06:20;10.70;;;7.20;;
74538;SDS011;66042;51.090;-115.340;2023-08-06T11:08:53;10.90;;;7.40;;
74538;SDS011;66042;51.090;-115.340;2023-08-06T11:11:21;10.30;;;7.30;;
74538;SDS011;66042;51.090;-115.340;2023-08-06T11:13:50;11.20;;;7.50;;
74538;SDS011;66042;51.090;-115.340;2023-08-06T11:16:21;12.50;;;8.10;;
74538;SDS011;66042;51.090;-115.340;2023-08-06T11:18:53;12.00;;;7.50;;
74538;SDS011;66042;51.090;-115.340;2023-08-06T11:21:22;10.50;;;7.30;;
74538;SDS011;66042;51.090;-115.340;2023-08-06T11:23:51;11.30;;;7.40;;
74538;SDS011;66042;51.090;-115.340;2023-08-06T11:26:22;10.30;;;7.00;;
74538;SDS011;66042;51.090;-115.340;2023-08-06T11:28:50;10.30;;;7.40;;
74538;SDS011;66042;51.090;-115.340;2023-08-06T11:31:21;10.60;;;7.20;;
74538;SDS011;66042;51.090;-115.340;2023-08-06T11:33:53;12.00;;;7.40;;
74538;SDS011;66042;51.090;-115.340;2023-08-06T11:36:30;10.70;;;6.90;;
74538;SDS011;66042;51.090;-115.340;2023-08-06T11:39:00;11.30;;;6.90;;
74538;SDS011;66042;51.090;-115.340;2023-08-06T11:41:29;13.80;;;7.60;;
74538;SDS011;66042;51.090;-115.340;2023-08-06T11:43:56;11.30;;;7.00;;
74538;SDS011;66042;51.090;-115.340;2023-08-06T11:46:26;13.20;;;7.70;;
74538;SDS011;66042;51.090;-115.340;2023-08-06T11:48:57;11.60;;;7.30;;
74538;SDS011;66042;51.090;-115.340;2023-08-06T11:51:28;12.60;;;6.80;;
74538;SDS011;66042;51.090;-115.340;2023-08-06T11:53:58;13.50;;;7.30;;
74538;SDS011;66042;51.090;-115.340;2023-08-06T11:56:26;11.30;;;7.20;;
74538;SDS011;66042;51.090;-115.340;2023-08-06T11:58:56;12.40;;;7.00;;
74538;SDS011;66042;51.090;-115.340;2023-08-06T12:01:25;12.00;;;7.20;;
74538;SDS011;66042;51.090;-115.340;2023-08-06T12:03:52;11.90;;;7.40;;
74538;SDS011;66042;51.090;-115.340;2023-08-06T12:06:28;12.30;;;7.60;;
74538;SDS011;66042;51.090;-115.340;2023-08-06T12:08:55;11.60;;;7.70;;
74538;SDS011;66042;51.090;-115.340;2023-08-06T12:11:22;11.90;;;7.40;;
74538;SDS011;66042;51.090;-115.340;2023-08-06T12:13:54;10.30;;;6.90;;
74538;SDS011;66042;51.090;-115.340;2023-08-06T12:16:22;11.90;;;7.70;;
74538;SDS011;66042;51.090;-115.340;2023-08-06T12:18:50;11.30;;;7.30;;
74538;SDS011;66042;51.090;-115.340;2023-08-06T12:21:17;11.60;;;6.60;;
74538;SDS011;66042;51.090;-115.340;2023-08-06T12:23:44;10.80;;;6.90;;
74538;SDS011;66042;51.090;-115.340;2023-08-06T12:26:11;10.80;;;7.30;;
74538;SDS011;66042;51.090;-115.340;2023-08-06T12:28:38;12.20;;;8.20;;
74538;SDS011;66042;51.090;-115.340;2023-08-06T12:31:05;12.20;;;7.90;;
74538;SDS011;66042;51.090;-115.340;2023-08-06T12:33:32;11.90;;;7.40;;
74538;SDS011;66042;51.090;-115.340;2023-08-06T12:35:59;11.90;;;7.50;;
74538;SDS011;66042;51.090;-115.340;2023-08-06T12:38:26;11.60;;;7.70;;
74538;SDS011;66042;51.090;-115.340;2023-08-06T12:40:53;11.90;;;7.40;;
74538;SDS011;66042;51.090;-115.340;2023-08-06T12:43:20;11.80;;;7.80;;
74538;SDS011;66042;51.090;-115.340;2023-08-06T12:45:47;12.10;;;7.40;;
74538;SDS011;66042;51.090;-115.340;2023-08-06T12:48:14;13.10;;;8.00;;
74538;SDS011;66042;51.090;-115.340;2023-08-06T12:50:45;10.90;;;7.20;;
74538;SDS011;66042;51.090;-115.340;2023-08-06T12:53:12;11.30;;;7.40;;
74538;SDS011;66042;51.090;-115.340;2023-08-06T12:55:39;13.60;;;7.70;;
74538;SDS011;66042;51.090;-115.340;2023-08-06T12:58:06;11.00;;;7.30;;
74538;SDS011;66042;51.090;-115.340;2023-08-06T13:00:34;12.60;;;7.40;;
74538;SDS011;66042;51.090;-115.340;2023-08-06T13:03:01;15.50;;;7.60;;
74538;SDS011;66042;51.090;-115.340;2023-08-06T13:05:29;15.00;;;7.30;;
74538;SDS011;66042;51.090;-115.340;2023-08-06T13:07:56;13.20;;;8.10;;
74538;SDS011;66042;51.090;-115.340;2023-08-06T13:10:23;15.50;;;7.50;;
74538;SDS011;66042;51.090;-115.340;2023-08-06T13:12:51;12.50;;;7.60;;
74538;SDS011;66042;51.090;-115.340;2023-08-06T13:15:18;12.20;;;7.10;;
74538;SDS011;66042;51.090;-115.340;2023-08-06T13:17:47;11.10;;;7.50;;
74538;SDS011;66042;51.090;-115.340;2023-08-06T13:20:14;11.00;;;7.60;;
74538;SDS011;66042;51.090;-115.340;2023-08-06T13:22:41;11.80;;;7.30;;
74538;SDS011;66042;51.090;-115.340;2023-08-06T13:25:07;12.70;;;7.40;;
74538;SDS011;66042;51.090;-115.340;2023-08-06T13:27:34;11.90;;;7.10;;
74538;SDS011;66042;51.090;-115.340;2023-08-06T13:30:01;11.70;;;7.40;;
74538;SDS011;66042;51.090;-115.340;2023-08-06T13:32:29;14.70;;;7.80;;
74538;SDS011;66042;51.090;-115.340;2023-08-06T13:34:56;11.70;;;7.60;;
74538;SDS011;66042;51.090;-115.340;2023-08-06T13:37:23;11.60;;;7.00;;
74538;SDS011;66042;51.090;-115.340;2023-08-06T13:39:50;13.00;;;7.40;;
74538;SDS011;66042;51.090;-115.340;2023-08-06T13:42:18;10.70;;;7.00;;
74538;SDS011;66042;51.090;-115.340;2023-08-06T13:44:45;12.80;;;7.50;;
74538;SDS011;66042;51.090;-115.340;2023-08-06T13:47:12;12.60;;;7.50;;
74538;SDS011;66042;51.090;-115.340;2023-08-06T13:49:38;11.20;;;7.00;;
74538;SDS011;66042;51.090;-115.340;2023-08-06T13:52:06;11.60;;;7.30;;
74538;SDS011;66042;51.090;-115.340;2023-08-06T13:54:33;12.20;;;7.30;;
74538;SDS011;66042;51.090;-115.340;2023-08-06T13:57:00;13.10;;;7.20;;
74538;SDS011;66042;51.090;-115.340;2023-08-06T13:59:27;12.70;;;7.30;;
74538;SDS011;66042;51.090;-115.340;2023-08-06T14:01:54;11.80;;;7.60;;
74538;SDS011;66042;51.090;-115.340;2023-08-06T14:04:25;11.80;;;7.10;;
74538;SDS011;66042;51.090;-115.340;2023-08-06T14:06:52;12.80;;;7.00;;
74538;SDS011;66042;51.090;-115.340;2023-08-06T14:09:21;11.90;;;7.70;;
74538;SDS011;66042;51.090;-115.340;2023-08-06T14:11:49;11.10;;;7.50;;
74538;SDS011;66042;51.090;-115.340;2023-08-06T14:14:16;11.90;;;7.80;;
74538;SDS011;66042;51.090;-115.340;2023-08-06T14:16:43;13.60;;;7.40;;